Terminal Aerodrome Forecast
Issued by NWS

Home | Current Version | Previous Version | Text Only | Print | Product List | Glossary On
Versions: 1 2 3 4 5 6 7 8 9 10 11 12 13 14 15 16 17 18 19 20 21 22 23 24 25 26 27 28
000
FTUS43 KDLH 200800 AAA
TAFHIB
TAF AMD
KHIB 200858Z 2009/2106 00000KT 2SM BR SCT025
      TEMPO 2009/2012 1/4SM FG BKN002
     FM201200 15004KT 4SM BR SKC
     FM201400 18010KT P6SM SCT040
     FM201800 19012KT P6SM BKN050
     FM210100 18006KT P6SM BKN040 PROB30 2101/2106 5SM TSRA
      BKN025CB=

USA.gov is the U.S. government's official web portal to all federal, state and local government web resources and services.